createdAt,value
2017-10-18T00:00:07.510Z,13.26
2017-10-18T00:02:33.946Z,13.09
2017-10-18T00:05:00.380Z,13.15
2017-10-18T00:07:26.814Z,13.15
2017-10-18T00:09:54.020Z,13.16
2017-10-18T00:12:20.401Z,13.15
2017-10-18T00:14:46.836Z,13.12
2017-10-18T00:17:13.269Z,13.13
2017-10-18T00:19:39.708Z,13.09
2017-10-18T00:22:06.142Z,13.00
2017-10-18T00:24:32.577Z,12.97
2017-10-18T00:26:59.854Z,12.91
2017-10-18T00:29:26.264Z,12.76
2017-10-18T00:31:52.699Z,12.66
2017-10-18T00:34:19.114Z,12.68
2017-10-18T00:36:45.551Z,12.77
2017-10-18T00:39:12.004Z,12.83
2017-10-18T00:41:38.540Z,12.87
2017-10-18T00:44:05.594Z,12.85
2017-10-18T00:46:32.024Z,12.81
2017-10-18T00:48:58.439Z,12.78
2017-10-18T00:51:24.880Z,12.67
2017-10-18T00:53:51.330Z,12.55
2017-10-18T00:56:17.763Z,12.59
2017-10-18T00:58:44.198Z,12.63
2017-10-18T01:01:11.350Z,12.67
2017-10-18T01:03:37.785Z,12.71
2017-10-18T01:06:04.220Z,12.73
2017-10-18T01:08:30.654Z,12.72
2017-10-18T01:10:57.191Z,12.63
2017-10-18T01:13:23.626Z,12.48
2017-10-18T01:15:50.011Z,12.70
2017-10-18T01:18:17.216Z,12.71
2017-10-18T01:20:43.654Z,12.63
2017-10-18T01:23:10.030Z,12.59
2017-10-18T01:25:36.518Z,12.55
2017-10-18T01:28:02.952Z,12.50
2017-10-18T01:30:29.496Z,12.49
2017-10-18T01:32:56.028Z,12.49
2017-10-18T01:35:22.461Z,12.51
2017-10-18T01:37:48.903Z,12.51
2017-10-18T01:40:15.332Z,12.49
2017-10-18T01:42:41.767Z,12.51
2017-10-18T01:45:08.201Z,12.47
2017-10-18T01:47:34.635Z,12.41
2017-10-18T01:50:01.074Z,12.31
2017-10-18T01:52:28.325Z,12.30
2017-10-18T01:54:54.687Z,12.25
2017-10-18T01:57:21.093Z,12.23
2017-10-18T01:59:47.479Z,12.20
2017-10-18T02:02:13.964Z,12.21
2017-10-18T02:04:40.397Z,12.25
2017-10-18T02:07:06.831Z,12.28
2017-10-18T02:09:34.031Z,12.27
2017-10-18T02:12:00.472Z,12.28
2017-10-18T02:14:26.852Z,12.26
2017-10-18T02:16:53.287Z,12.20
2017-10-18T02:19:20.134Z,12.09
2017-10-18T02:21:46.524Z,12.00
2017-10-18T02:24:12.989Z,11.81
2017-10-18T02:26:40.039Z,11.85
2017-10-18T02:29:06.485Z,11.93
2017-10-18T02:31:32.920Z,11.96
2017-10-18T02:33:59.307Z,11.98
2017-10-18T02:36:25.777Z,11.96
2017-10-18T02:38:52.219Z,12.01
2017-10-18T02:41:18.664Z,12.08
2017-10-18T02:43:45.852Z,12.11
2017-10-18T02:46:12.340Z,12.06
2017-10-18T02:48:38.784Z,11.94
2017-10-18T02:51:05.218Z,11.88
2017-10-18T02:53:31.603Z,11.83
2017-10-18T02:55:58.035Z,11.86
2017-10-18T02:58:24.471Z,11.83
2017-10-18T03:00:51.673Z,11.83
2017-10-18T03:03:18.109Z,11.87
2017-10-18T03:05:44.543Z,11.92
2017-10-18T03:08:10.977Z,11.86
2017-10-18T03:10:37.416Z,11.71
2017-10-18T03:13:03.849Z,11.67
2017-10-18T03:15:30.284Z,11.66
2017-10-18T03:17:57.433Z,11.63
2017-10-18T03:20:23.868Z,11.60
2017-10-18T03:22:50.410Z,11.58
2017-10-18T03:25:16.842Z,11.58
2017-10-18T03:27:43.277Z,11.42
2017-10-18T03:30:09.717Z,11.47
2017-10-18T03:32:36.250Z,11.47
2017-10-18T03:35:03.502Z,11.52
2017-10-18T03:37:29.939Z,11.56
2017-10-18T03:39:56.352Z,11.42
2017-10-18T03:42:22.705Z,11.66
2017-10-18T03:47:21.706Z,11.51
2017-10-18T03:49:48.146Z,11.45
2017-10-18T03:52:14.613Z,11.45
2017-10-18T03:54:41.133Z,11.47
2017-10-18T03:57:07.560Z,11.56
2017-10-18T03:59:33.951Z,11.68
2017-10-18T04:02:00.409Z,11.73
2017-10-18T04:04:26.852Z,11.75
2017-10-18T04:06:53.254Z,11.70
2017-10-18T04:09:19.733Z,11.54
2017-10-18T04:11:46.169Z,11.43
2017-10-18T04:14:12.694Z,11.40
2017-10-18T04:16:39.243Z,11.39
2017-10-18T04:19:06.293Z,11.46
2017-10-18T04:21:32.728Z,11.48
2017-10-18T04:23:59.166Z,11.39
2017-10-18T04:26:25.597Z,11.22
2017-10-18T04:28:52.034Z,11.12
2017-10-18T04:31:18.568Z,11.16
2017-10-18T04:33:45.004Z,11.24
2017-10-18T04:36:12.158Z,11.15
2017-10-18T04:38:38.590Z,11.20
2017-10-18T04:41:05.029Z,11.24
2017-10-18T04:43:31.459Z,11.32
2017-10-18T04:45:57.909Z,11.15
2017-10-18T04:48:24.432Z,11.45
2017-10-18T04:50:50.882Z,11.44
2017-10-18T04:53:18.072Z,11.39
2017-10-18T04:55:44.556Z,11.44
2017-10-18T04:58:11.093Z,11.55
2017-10-18T05:00:37.527Z,11.65
2017-10-18T05:03:03.963Z,11.65
2017-10-18T05:05:30.397Z,11.66
2017-10-18T05:07:56.876Z,11.76
2017-10-18T05:10:24.045Z,11.83
2017-10-18T05:12:50.534Z,11.88
2017-10-18T05:15:17.163Z,11.90
2017-10-18T05:17:43.608Z,11.98
2017-10-18T05:20:10.058Z,12.08
2017-10-18T05:22:36.556Z,12.18
2017-10-18T05:25:03.006Z,12.31
2017-10-18T05:27:29.538Z,12.41
2017-10-18T05:29:55.973Z,12.55
2017-10-18T05:32:22.364Z,12.69
2017-10-18T05:34:48.741Z,12.83
2017-10-18T05:37:15.176Z,12.91
2017-10-18T05:39:42.446Z,12.97
2017-10-18T05:42:09.079Z,13.04
2017-10-18T05:44:35.607Z,13.10
2017-10-18T05:47:01.980Z,13.16
2017-10-18T05:49:28.477Z,13.29
2017-10-18T05:51:55.137Z,13.44
2017-10-18T05:54:21.628Z,13.55
2017-10-18T05:56:48.071Z,13.53
2017-10-18T05:59:14.514Z,13.81
2017-10-18T06:01:40.959Z,13.90
2017-10-18T06:04:07.393Z,13.95
2017-10-18T06:06:33.827Z,14.04
2017-10-18T06:09:00.264Z,14.13
2017-10-18T06:11:26.750Z,14.28
2017-10-18T06:13:53.242Z,14.40
2017-10-18T06:16:20.028Z,14.46
2017-10-18T06:18:46.597Z,14.64
2017-10-18T06:21:13.052Z,14.75
2017-10-18T06:23:41.329Z,14.81
2017-10-18T06:26:07.867Z,14.81
2017-10-18T06:28:34.311Z,15.01
2017-10-18T06:31:00.736Z,15.11
2017-10-18T06:33:27.170Z,15.18
2017-10-18T06:35:53.707Z,15.24
2017-10-18T06:38:20.655Z,15.36
2017-10-18T06:40:47.191Z,15.46
2017-10-18T06:43:13.627Z,15.49
2017-10-18T06:45:40.368Z,15.57
2017-10-18T06:48:06.803Z,15.64
2017-10-18T06:50:33.343Z,15.75
2017-10-18T06:52:59.789Z,15.86
2017-10-18T06:55:26.524Z,15.92
2017-10-18T06:57:53.055Z,16.04
2017-10-18T07:00:19.491Z,16.14
2017-10-18T07:02:46.071Z,16.21
2017-10-18T07:05:12.693Z,16.30
2017-10-18T07:07:39.204Z,16.43
2017-10-18T07:10:05.743Z,16.57
2017-10-18T07:12:32.131Z,16.71
2017-10-18T07:14:58.508Z,16.85
2017-10-18T07:17:24.944Z,16.96
2017-10-18T07:19:51.994Z,17.04
2017-10-18T07:22:18.631Z,17.16
2017-10-18T07:24:45.067Z,17.29
2017-10-18T07:27:11.502Z,17.45
2017-10-18T07:29:38.039Z,17.60
2017-10-18T07:32:04.423Z,17.73
2017-10-18T07:34:30.805Z,17.85
2017-10-18T07:36:57.283Z,18.01
2017-10-18T07:39:23.781Z,18.12
2017-10-18T07:41:50.212Z,18.25
2017-10-18T07:44:16.647Z,18.40
2017-10-18T07:46:43.185Z,18.54
2017-10-18T07:49:09.675Z,18.69
2017-10-18T07:51:36.114Z,18.83
2017-10-18T07:54:02.695Z,18.91
2017-10-18T07:56:29.130Z,19.08
2017-10-18T07:58:55.665Z,19.24
2017-10-18T08:01:22.260Z,19.41
2017-10-18T08:03:48.729Z,19.55
2017-10-18T08:06:15.174Z,19.71
2017-10-18T08:08:41.714Z,19.84
2017-10-18T08:11:08.209Z,19.96
2017-10-18T08:13:34.683Z,20.05
2017-10-18T08:16:01.120Z,20.15
2017-10-18T08:18:27.660Z,20.27
2017-10-18T08:20:54.574Z,20.42
2017-10-18T08:23:21.283Z,20.61
2017-10-18T08:25:47.882Z,20.75
2017-10-18T08:28:14.845Z,20.91
2017-10-18T08:30:41.469Z,21.03
2017-10-18T08:33:07.907Z,21.15
2017-10-18T08:35:34.453Z,21.28
2017-10-18T08:38:01.182Z,21.38
2017-10-18T08:40:27.725Z,21.50
2017-10-18T08:42:54.247Z,21.61
2017-10-18T08:45:20.980Z,21.74
2017-10-18T08:47:47.434Z,21.85
2017-10-18T08:50:13.972Z,21.81
2017-10-18T08:52:40.412Z,22.10
2017-10-18T08:55:06.841Z,22.23
2017-10-18T08:57:33.685Z,22.32
2017-10-18T09:00:00.112Z,22.43
2017-10-18T09:02:26.657Z,22.53
2017-10-18T09:04:53.093Z,22.59
2017-10-18T09:07:19.527Z,22.51
2017-10-18T09:09:46.591Z,22.46
2017-10-18T09:12:13.011Z,22.65
2017-10-18T09:14:39.676Z,22.81
2017-10-18T09:17:06.700Z,23.05
2017-10-18T09:19:33.442Z,23.24
2017-10-18T09:21:59.972Z,23.19
2017-10-18T09:24:26.414Z,23.35
2017-10-18T09:26:52.899Z,23.47
2017-10-18T09:29:19.591Z,23.65
2017-10-18T09:31:46.074Z,23.76
2017-10-18T09:34:12.588Z,23.81
2017-10-18T09:36:39.102Z,23.86
2017-10-18T09:39:05.535Z,23.86
2017-10-18T09:41:31.969Z,23.73
2017-10-18T09:43:58.405Z,23.70
2017-10-18T09:46:25.249Z,24.04
2017-10-18T09:48:51.787Z,23.93
2017-10-18T09:51:18.224Z,24.09
2017-10-18T09:53:44.656Z,23.82
2017-10-18T09:56:11.091Z,23.67
2017-10-18T09:58:37.628Z,23.69
2017-10-18T10:01:04.063Z,23.67
2017-10-18T10:03:30.542Z,23.73
2017-10-18T10:05:57.381Z,23.89
2017-10-18T10:08:23.879Z,24.23
2017-10-18T10:10:51.132Z,24.29
2017-10-18T10:13:17.743Z,24.08
2017-10-18T10:15:44.210Z,24.13
2017-10-18T10:18:11.155Z,24.56
2017-10-18T10:20:37.542Z,24.79
2017-10-18T10:23:04.024Z,24.61
2017-10-18T10:25:30.460Z,24.44
2017-10-18T10:27:57.013Z,24.23
2017-10-18T10:30:23.537Z,24.52
2017-10-18T10:32:49.969Z,24.79
2017-10-18T10:35:16.457Z,24.57
2017-10-18T10:37:42.837Z,24.63
2017-10-18T10:40:09.273Z,24.91
2017-10-18T10:42:35.708Z,24.88
2017-10-18T10:45:02.656Z,24.94
2017-10-18T10:47:29.091Z,24.74
2017-10-18T10:49:55.626Z,24.47
2017-10-18T10:52:22.320Z,24.36
2017-10-18T10:54:48.804Z,24.83
2017-10-18T10:57:15.341Z,25.28
2017-10-18T10:59:41.981Z,25.46
2017-10-18T11:02:08.518Z,25.33
2017-10-18T11:04:35.126Z,25.30
2017-10-18T11:07:01.708Z,25.91
2017-10-18T11:09:28.334Z,26.29
2017-10-18T11:11:54.737Z,26.81
2017-10-18T11:14:21.593Z,27.09
2017-10-18T11:16:48.035Z,27.30
2017-10-18T11:19:14.688Z,27.53
2017-10-18T11:21:41.429Z,28.10
2017-10-18T11:24:07.870Z,28.50
2017-10-18T11:26:34.247Z,29.29
2017-10-18T11:29:01.860Z,29.75
2017-10-18T11:31:28.398Z,29.93
2017-10-18T11:33:54.915Z,29.75
2017-10-18T11:36:21.305Z,29.31
2017-10-18T11:38:48.113Z,29.83
2017-10-18T11:41:14.550Z,29.40
2017-10-18T11:43:40.981Z,28.95
2017-10-18T11:46:07.928Z,29.64
2017-10-18T11:48:34.421Z,30.19
2017-10-18T11:51:00.786Z,30.55
2017-10-18T11:53:27.234Z,31.01
2017-10-18T11:55:54.552Z,31.27
2017-10-18T11:58:21.234Z,30.56
2017-10-18T12:00:47.619Z,31.17
2017-10-18T12:03:14.104Z,31.14
2017-10-18T12:05:40.536Z,31.29
2017-10-18T12:08:07.071Z,31.65
2017-10-18T12:10:33.506Z,31.55
2017-10-18T12:12:59.941Z,31.88
2017-10-18T12:15:26.376Z,31.66
2017-10-18T12:17:52.810Z,31.20
2017-10-18T12:20:19.246Z,30.10
2017-10-18T12:22:46.101Z,30.90
2017-10-18T12:25:12.668Z,31.71
2017-10-18T12:27:39.274Z,32.04
2017-10-18T12:30:06.642Z,31.48
2017-10-18T12:32:33.149Z,31.47
2017-10-18T12:34:59.698Z,30.67
2017-10-18T12:37:26.298Z,30.49
2017-10-18T12:39:52.771Z,30.74
2017-10-18T12:42:19.295Z,31.92
2017-10-18T12:44:45.847Z,32.16
2017-10-18T12:47:12.487Z,32.11
2017-10-18T12:49:39.226Z,32.55
2017-10-18T12:52:05.767Z,33.39
2017-10-18T12:54:32.721Z,34.45
2017-10-18T12:56:59.558Z,33.70
2017-10-18T12:59:26.049Z,33.24
2017-10-18T13:01:52.536Z,33.27
2017-10-18T13:04:19.220Z,33.00
2017-10-18T13:06:45.808Z,32.36
2017-10-18T13:09:12.476Z,32.41
2017-10-18T13:11:39.292Z,32.79
2017-10-18T13:14:05.783Z,32.99
2017-10-18T13:16:32.775Z,32.54
2017-10-18T13:18:59.193Z,32.03
2017-10-18T13:21:25.599Z,31.88
2017-10-18T13:23:52.388Z,31.69
2017-10-18T13:26:18.824Z,31.63
2017-10-18T13:28:45.393Z,32.00
2017-10-18T13:31:12.000Z,32.38
2017-10-18T13:33:38.435Z,32.35
2017-10-18T13:36:04.994Z,31.40
2017-10-18T13:38:31.508Z,30.73
2017-10-18T13:40:58.455Z,30.68
2017-10-18T13:43:25.526Z,30.69
2017-10-18T13:45:52.355Z,30.74
2017-10-18T13:48:19.809Z,30.53
2017-10-18T13:53:21.526Z,30.60
2017-10-18T13:55:48.040Z,30.46
2017-10-18T13:58:16.220Z,30.39
2017-10-18T14:00:42.651Z,30.41
2017-10-18T14:03:09.101Z,30.08
2017-10-18T14:05:35.521Z,29.74
2017-10-18T14:08:02.330Z,29.66
2017-10-18T14:10:28.751Z,29.55
2017-10-18T14:12:56.155Z,29.49
2017-10-18T14:15:22.620Z,29.43
2017-10-18T14:17:49.845Z,29.49
2017-10-18T14:20:16.970Z,30.07
2017-10-18T14:22:43.533Z,30.33
2017-10-18T14:25:09.940Z,30.64
2017-10-18T14:27:36.600Z,30.68
2017-10-18T14:30:03.013Z,30.42
2017-10-18T14:32:29.580Z,30.16
2017-10-18T14:34:55.978Z,29.80
2017-10-18T14:37:22.552Z,29.45
2017-10-18T14:39:49.400Z,29.25
2017-10-18T14:42:16.234Z,29.37
2017-10-18T14:44:42.676Z,29.55
2017-10-18T14:47:09.112Z,29.51
2017-10-18T14:49:35.751Z,28.91
2017-10-18T14:52:02.129Z,28.40
2017-10-18T14:54:28.620Z,28.21
2017-10-18T14:56:55.362Z,28.44
2017-10-18T14:59:21.754Z,28.74
2017-10-18T15:01:48.129Z,28.70
2017-10-18T15:04:14.563Z,28.22
2017-10-18T15:06:41.064Z,27.79
2017-10-18T15:09:07.483Z,27.31
2017-10-18T15:11:33.906Z,27.03
2017-10-18T15:14:00.306Z,26.85
2017-10-18T15:16:28.517Z,26.53
2017-10-18T15:18:55.016Z,26.05
2017-10-18T15:21:21.451Z,25.62
2017-10-18T15:23:47.888Z,25.35
2017-10-18T15:26:14.423Z,25.11
2017-10-18T15:28:40.852Z,24.68
2017-10-18T15:31:07.293Z,24.34
2017-10-18T15:33:33.885Z,24.16
2017-10-18T15:36:00.354Z,23.99
2017-10-18T15:38:26.699Z,23.82
2017-10-18T15:40:53.077Z,23.67
2017-10-18T15:43:19.558Z,23.43
2017-10-18T15:45:46.012Z,23.34
2017-10-18T15:48:12.439Z,23.19
2017-10-18T15:50:38.861Z,23.00
2017-10-18T15:53:05.304Z,22.87
2017-10-18T15:55:31.762Z,22.79
2017-10-18T15:57:59.203Z,22.74
2017-10-18T16:00:25.682Z,22.71
2017-10-18T16:02:52.150Z,22.60
2017-10-18T16:05:18.609Z,22.45
2017-10-18T16:07:45.130Z,22.34
2017-10-18T16:10:11.580Z,22.28
2017-10-18T16:12:38.118Z,22.22
2017-10-18T16:15:04.552Z,22.14
2017-10-18T16:17:30.988Z,22.05
2017-10-18T16:19:57.422Z,22.00
2017-10-18T16:22:23.861Z,21.94
2017-10-18T16:24:50.292Z,21.82
2017-10-18T16:27:16.777Z,21.85
2017-10-18T16:29:43.246Z,21.80
2017-10-18T16:32:09.689Z,21.80
2017-10-18T16:34:36.133Z,21.79
2017-10-18T16:37:02.570Z,21.77
2017-10-18T16:39:29.004Z,21.73
2017-10-18T16:41:55.442Z,21.71
2017-10-18T16:44:21.876Z,21.69
2017-10-18T16:46:48.311Z,21.67
2017-10-18T16:49:14.713Z,21.66
2017-10-18T16:51:41.156Z,21.62
2017-10-18T16:54:07.568Z,21.61
2017-10-18T16:56:33.987Z,21.59
2017-10-18T16:59:00.484Z,21.51
2017-10-18T17:01:26.919Z,21.48
2017-10-18T17:03:53.457Z,21.42
2017-10-18T17:06:19.815Z,21.38
2017-10-18T17:08:46.222Z,21.38
2017-10-18T17:11:12.659Z,21.34
2017-10-18T17:13:39.093Z,21.26
2017-10-18T17:16:05.527Z,21.24
2017-10-18T17:18:31.961Z,21.20
2017-10-18T17:20:58.472Z,21.21
2017-10-18T17:23:24.935Z,21.05
2017-10-18T17:25:51.369Z,21.01
2017-10-18T17:28:17.804Z,20.97
2017-10-18T17:30:44.238Z,20.91
2017-10-18T17:33:10.619Z,20.83
2017-10-18T17:35:37.143Z,20.73
2017-10-18T17:38:03.644Z,20.65
2017-10-18T17:40:30.285Z,20.53
2017-10-18T17:42:56.724Z,20.45
2017-10-18T17:45:23.165Z,20.45
2017-10-18T17:47:50.307Z,20.41
2017-10-18T17:50:16.740Z,20.31
2017-10-18T17:52:43.277Z,20.27
2017-10-18T17:55:09.731Z,20.21
2017-10-18T17:57:36.203Z,20.07
2017-10-18T18:00:02.685Z,20.09
2017-10-18T18:02:29.079Z,20.08
2017-10-18T18:04:55.563Z,19.93
2017-10-18T18:07:22.009Z,19.80
2017-10-18T18:09:48.508Z,19.70
2017-10-18T18:12:14.966Z,19.50
2017-10-18T18:14:41.827Z,19.54
2017-10-18T18:17:08.343Z,19.63
2017-10-18T18:19:34.881Z,19.70
2017-10-18T18:22:01.316Z,19.59
2017-10-18T18:24:27.750Z,19.43
2017-10-18T18:26:54.184Z,19.24
2017-10-18T18:29:20.632Z,19.30
2017-10-18T18:31:47.058Z,19.25
2017-10-18T18:34:13.462Z,19.24
2017-10-18T18:36:39.923Z,19.30
2017-10-18T18:39:06.360Z,19.31
2017-10-18T18:41:32.747Z,19.17
2017-10-18T18:43:59.229Z,19.02
2017-10-18T18:46:25.813Z,18.93
2017-10-18T18:48:52.303Z,18.88
2017-10-18T18:51:19.658Z,18.87
2017-10-18T18:53:46.094Z,18.81
2017-10-18T18:56:12.547Z,18.78
2017-10-18T18:58:38.964Z,18.79
2017-10-18T19:01:05.358Z,18.83
2017-10-18T19:03:31.732Z,18.95
2017-10-18T19:05:58.166Z,19.00
2017-10-18T19:08:24.602Z,18.93
2017-10-18T19:10:51.057Z,18.73
2017-10-18T19:13:17.776Z,18.50
2017-10-18T19:15:44.693Z,18.44
2017-10-18T19:18:11.113Z,18.61
2017-10-18T19:20:37.595Z,18.73
2017-10-18T19:23:04.030Z,18.66
2017-10-18T19:25:30.566Z,18.64
2017-10-18T19:27:57.423Z,18.68
2017-10-18T19:30:23.846Z,18.55
2017-10-18T19:32:50.384Z,18.57
2017-10-18T19:35:16.866Z,18.44
2017-10-18T19:37:43.355Z,18.22
2017-10-18T19:40:09.790Z,18.20
2017-10-18T19:42:36.232Z,18.35
2017-10-18T19:45:02.664Z,18.54
2017-10-18T19:47:29.075Z,18.57
2017-10-18T19:49:55.528Z,18.32
2017-10-18T19:52:21.963Z,18.15
2017-10-18T19:54:48.398Z,18.31
2017-10-18T19:57:14.833Z,18.19
2017-10-18T19:59:41.268Z,18.32
2017-10-18T20:02:07.714Z,18.50
2017-10-18T20:04:34.227Z,18.34
2017-10-18T20:07:00.676Z,18.30
2017-10-18T20:09:27.933Z,18.25
2017-10-18T20:11:54.366Z,18.17
2017-10-18T20:14:20.799Z,17.91
2017-10-18T20:16:47.236Z,17.81
2017-10-18T20:19:13.620Z,17.77
2017-10-18T20:21:40.050Z,17.80
2017-10-18T20:24:06.538Z,17.88
2017-10-18T20:26:32.920Z,17.89
2017-10-18T20:28:59.408Z,17.73
2017-10-18T20:31:25.843Z,17.73
2017-10-18T20:33:52.278Z,17.78
2017-10-18T20:36:18.713Z,17.72
2017-10-18T20:38:45.100Z,17.63
2017-10-18T20:41:11.531Z,17.58
2017-10-18T20:43:38.018Z,17.80
2017-10-18T20:46:04.451Z,18.07
2017-10-18T20:48:30.887Z,18.04
2017-10-18T20:50:57.322Z,17.81
2017-10-18T20:53:23.756Z,17.90
2017-10-18T20:55:50.190Z,18.08
2017-10-18T20:58:16.625Z,18.10
2017-10-18T21:00:43.062Z,18.17
2017-10-18T21:03:09.496Z,18.09
2017-10-18T21:05:35.880Z,18.12
2017-10-18T21:08:02.365Z,17.81
2017-10-18T21:10:29.518Z,17.75
2017-10-18T21:12:55.973Z,17.91
2017-10-18T21:15:22.441Z,17.84
2017-10-18T21:17:49.230Z,17.82
2017-10-18T21:20:15.668Z,17.93
2017-10-18T21:22:42.089Z,18.02
2017-10-18T21:25:08.537Z,18.06
2017-10-18T21:27:35.077Z,17.99
2017-10-18T21:30:01.508Z,17.84
2017-10-18T21:32:27.945Z,17.85
2017-10-18T21:34:54.483Z,18.04
2017-10-18T21:37:20.915Z,18.11
2017-10-18T21:39:47.352Z,18.05
2017-10-18T21:42:13.785Z,18.07
2017-10-18T21:44:40.220Z,17.75
2017-10-18T21:47:06.654Z,17.47
2017-10-18T21:49:33.058Z,17.57
2017-10-18T21:51:59.501Z,17.57
2017-10-18T21:54:25.958Z,17.57
2017-10-18T21:56:52.498Z,17.69
2017-10-18T21:59:18.846Z,17.77
2017-10-18T22:01:45.262Z,17.83
2017-10-18T22:04:11.698Z,17.73
2017-10-18T22:06:38.644Z,17.50
2017-10-18T22:09:05.080Z,17.47
2017-10-18T22:11:31.514Z,17.69
2017-10-18T22:13:57.950Z,17.85
2017-10-18T22:16:24.352Z,17.90
2017-10-18T22:18:50.840Z,17.91
2017-10-18T22:21:17.356Z,17.83
2017-10-18T22:23:43.791Z,17.59
2017-10-18T22:26:10.226Z,17.51
2017-10-18T22:28:36.660Z,17.56
2017-10-18T22:31:03.099Z,17.73
2017-10-18T22:33:29.530Z,17.50
2017-10-18T22:35:56.068Z,17.18
2017-10-18T22:38:22.504Z,17.20
2017-10-18T22:40:48.938Z,17.49
2017-10-18T22:43:15.372Z,17.51
2017-10-18T22:45:41.806Z,17.50
2017-10-18T22:48:08.246Z,17.41
2017-10-18T22:50:34.779Z,17.37
2017-10-18T22:53:01.213Z,17.52
2017-10-18T22:55:27.588Z,17.70
2017-10-18T22:57:54.049Z,17.45
2017-10-18T23:00:20.518Z,17.17
2017-10-18T23:02:47.056Z,17.19
2017-10-18T23:05:13.478Z,17.14
2017-10-18T23:07:39.921Z,17.04
2017-10-18T23:10:06.360Z,17.25
2017-10-18T23:12:32.795Z,17.30
2017-10-18T23:14:59.229Z,17.32
2017-10-18T23:17:25.615Z,17.40
2017-10-18T23:19:52.099Z,17.33
2017-10-18T23:22:18.534Z,17.31
2017-10-18T23:24:44.918Z,17.19
2017-10-18T23:27:11.402Z,16.99
2017-10-18T23:29:37.838Z,16.88
2017-10-18T23:32:04.273Z,17.12
2017-10-18T23:34:30.709Z,17.33
2017-10-18T23:36:57.094Z,17.44
2017-10-18T23:39:23.475Z,17.44
2017-10-18T23:41:49.910Z,17.30
2017-10-18T23:44:16.856Z,17.35
2017-10-18T23:46:43.291Z,17.22
2017-10-18T23:49:09.726Z,17.11
2017-10-18T23:51:36.160Z,17.19
2017-10-18T23:54:02.599Z,17.30
2017-10-18T23:56:29.031Z,17.29
2017-10-18T23:58:55.465Z,17.10
